createdAt,value
2018-02-27T00:02:12.675Z,83.79
2018-02-27T00:04:41.426Z,86.19
2018-02-27T00:07:09.457Z,88.99
2018-02-27T00:09:37.406Z,83.62
2018-02-27T00:12:05.494Z,84.46
2018-02-27T00:14:33.418Z,82.75
2018-02-27T00:17:01.370Z,82.42
2018-02-27T00:19:29.299Z,82.07
2018-02-27T00:21:57.371Z,82.18
2018-02-27T00:24:25.675Z,82.07
2018-02-27T00:26:53.719Z,82.64
2018-02-27T00:29:21.710Z,82.26
2018-02-27T00:31:49.640Z,83.69
2018-02-27T00:34:18.325Z,83.04
2018-02-27T00:36:46.272Z,83.00
2018-02-27T00:39:14.186Z,83.29
2018-02-27T00:41:42.127Z,84.12
2018-02-27T00:44:14.325Z,83.89
2018-02-27T00:46:42.248Z,83.72
2018-02-27T00:49:10.351Z,83.85
2018-02-27T00:51:38.251Z,84.50
2018-02-27T00:54:06.236Z,84.52
2018-02-27T00:56:34.218Z,84.53
2018-02-27T00:59:02.167Z,84.90
2018-02-27T01:01:30.104Z,84.88
2018-02-27T01:03:58.134Z,84.52
2018-02-27T01:06:26.083Z,84.61
2018-02-27T01:08:54.440Z,85.03
2018-02-27T01:11:22.433Z,84.77
2018-02-27T01:13:50.340Z,84.76
2018-02-27T01:16:18.307Z,84.93
2018-02-27T01:18:46.238Z,85.31
2018-02-27T01:21:14.290Z,84.50
2018-02-27T01:23:42.221Z,84.97
2018-02-27T01:26:10.150Z,85.26
2018-02-27T01:28:38.143Z,85.20
2018-02-27T01:31:06.161Z,84.90
2018-02-27T01:33:34.118Z,84.60
2018-02-27T01:36:02.097Z,85.99
2018-02-27T01:38:30.014Z,86.51
2018-02-27T01:40:57.983Z,86.75
2018-02-27T01:43:25.909Z,85.22
2018-02-27T01:45:53.839Z,85.13
2018-02-27T01:48:21.781Z,85.55
2018-02-27T01:51:01.668Z,85.57
2018-02-27T01:53:29.617Z,84.90
2018-02-27T01:55:57.530Z,84.93
2018-02-27T01:58:25.464Z,84.48
2018-02-27T02:00:53.374Z,84.50
2018-02-27T02:03:22.744Z,84.54
2018-02-27T02:05:50.679Z,84.74
2018-02-27T02:08:18.666Z,84.74
2018-02-27T02:10:46.601Z,84.48
2018-02-27T02:13:14.652Z,84.06
2018-02-27T02:15:42.598Z,83.86
2018-02-27T02:18:10.570Z,84.44
2018-02-27T02:20:38.503Z,85.26
2018-02-27T02:23:06.571Z,85.58
2018-02-27T02:25:34.519Z,85.66
2018-02-27T02:28:02.517Z,85.79
2018-02-27T02:30:30.477Z,85.58
2018-02-27T02:32:58.398Z,84.38
2018-02-27T02:35:26.353Z,84.97
2018-02-27T02:37:54.297Z,84.89
2018-02-27T02:40:22.232Z,85.19
2018-02-27T02:42:50.236Z,85.54
2018-02-27T02:45:18.173Z,85.03
2018-02-27T02:47:46.125Z,85.22
2018-02-27T02:50:14.060Z,84.74
2018-02-27T02:52:42.001Z,84.77
2018-02-27T02:55:09.946Z,84.80
2018-02-27T02:57:37.914Z,84.03
2018-02-27T03:00:05.841Z,84.39
2018-02-27T03:02:33.760Z,84.52
2018-02-27T03:05:01.746Z,84.64
2018-02-27T03:07:29.666Z,84.36
2018-02-27T03:09:57.739Z,83.92
2018-02-27T03:12:28.439Z,84.39
2018-02-27T03:14:56.361Z,84.88
2018-02-27T03:17:24.391Z,84.28
2018-02-27T03:19:52.382Z,83.10
2018-02-27T03:22:20.327Z,81.85
2018-02-27T03:24:48.314Z,80.01
2018-02-27T03:27:16.365Z,78.27
2018-02-27T03:29:44.295Z,77.75
2018-02-27T03:32:12.232Z,77.51
2018-02-27T03:34:40.181Z,77.26
2018-02-27T03:37:08.368Z,77.68
2018-02-27T03:39:36.404Z,77.08
2018-02-27T03:42:04.404Z,76.50
2018-02-27T03:44:32.818Z,76.09
2018-02-27T03:47:00.824Z,76.86
2018-02-27T03:49:28.821Z,76.70
2018-02-27T03:51:56.742Z,76.43
2018-02-27T03:54:24.705Z,76.37
2018-02-27T03:56:52.640Z,77.06
2018-02-27T03:59:20.610Z,77.06
2018-02-27T04:01:48.561Z,76.65
2018-02-27T04:04:16.521Z,76.56
2018-02-27T04:06:44.456Z,77.27
2018-02-27T04:09:12.388Z,76.74
2018-02-27T04:11:40.333Z,76.81
2018-02-27T04:14:08.262Z,76.89
2018-02-27T04:16:36.212Z,76.23
2018-02-27T04:19:04.146Z,76.87
2018-02-27T04:21:32.134Z,76.55
2018-02-27T04:24:00.101Z,77.03
2018-02-27T04:26:28.023Z,77.08
2018-02-27T04:28:55.972Z,77.34
2018-02-27T04:31:23.889Z,76.98
2018-02-27T04:33:51.951Z,76.58
2018-02-27T04:36:19.945Z,76.75
2018-02-27T04:38:48.095Z,77.08
2018-02-27T04:41:16.009Z,76.63
2018-02-27T04:43:44.009Z,77.19
2018-02-27T04:46:11.964Z,76.79
2018-02-27T04:48:39.928Z,77.01
2018-02-27T04:51:07.887Z,77.50
2018-02-27T04:53:35.818Z,80.12
2018-02-27T04:56:03.841Z,82.36
2018-02-27T04:58:31.772Z,80.83
2018-02-27T05:00:59.879Z,77.91
2018-02-27T05:03:28.007Z,76.14
2018-02-27T05:05:55.969Z,76.15
2018-02-27T05:08:23.959Z,76.72
2018-02-27T05:10:51.881Z,76.49
2018-02-27T05:13:19.806Z,76.54
2018-02-27T05:15:47.757Z,77.05
2018-02-27T05:18:15.727Z,77.41
2018-02-27T05:20:43.659Z,77.66
2018-02-27T05:23:11.609Z,77.32
2018-02-27T05:25:39.549Z,77.55
2018-02-27T05:28:07.511Z,77.95
2018-02-27T05:30:35.483Z,77.82
2018-02-27T05:33:03.424Z,77.80
2018-02-27T05:35:31.395Z,77.95
2018-02-27T05:37:59.319Z,77.72
2018-02-27T05:40:27.287Z,77.81
2018-02-27T05:42:55.250Z,77.95
2018-02-27T05:45:23.190Z,77.92
2018-02-27T05:47:51.092Z,77.96
2018-02-27T05:50:19.100Z,77.80
2018-02-27T05:52:47.142Z,77.76
2018-02-27T05:55:15.066Z,77.61
2018-02-27T05:57:42.994Z,77.53
2018-02-27T06:00:10.997Z,78.27
2018-02-27T06:02:39.068Z,77.95
2018-02-27T06:05:06.950Z,77.97
2018-02-27T06:07:34.906Z,78.31
2018-02-27T06:10:02.871Z,78.95
2018-02-27T06:12:30.786Z,79.25
2018-02-27T06:14:58.735Z,79.27
2018-02-27T06:17:26.669Z,78.50
2018-02-27T06:19:54.708Z,78.79
2018-02-27T06:22:22.630Z,78.51
2018-02-27T06:24:50.648Z,80.56
2018-02-27T06:27:18.597Z,79.63
2018-02-27T06:29:46.779Z,80.76
2018-02-27T06:32:15.014Z,81.65
2018-02-27T06:34:42.981Z,79.99
2018-02-27T06:37:11.297Z,80.77
2018-02-27T06:39:39.546Z,79.36
2018-02-27T06:42:07.486Z,80.04
2018-02-27T06:44:35.419Z,78.69
2018-02-27T06:47:03.344Z,79.08
2018-02-27T06:49:31.292Z,78.04
2018-02-27T06:51:59.223Z,77.56
2018-02-27T06:54:27.214Z,77.71
2018-02-27T06:56:59.378Z,77.44
2018-02-27T06:59:27.301Z,77.56
2018-02-27T07:01:55.492Z,77.66
2018-02-27T07:04:23.430Z,77.89
2018-02-27T07:06:51.444Z,79.11
2018-02-27T07:09:19.405Z,79.83
2018-02-27T07:11:47.326Z,79.24
2018-02-27T07:14:15.268Z,79.98
2018-02-27T07:16:43.220Z,80.75
2018-02-27T07:19:11.343Z,80.56
2018-02-27T07:21:39.284Z,80.46
2018-02-27T07:24:07.433Z,83.04
2018-02-27T07:26:35.366Z,84.13
2018-02-27T07:29:03.421Z,84.16
2018-02-27T07:31:31.526Z,85.58
2018-02-27T07:33:59.503Z,84.74
2018-02-27T07:36:27.506Z,85.46
2018-02-27T07:38:55.531Z,85.97
2018-02-27T07:41:23.470Z,85.93
2018-02-27T07:43:51.410Z,85.96
2018-02-27T07:46:19.515Z,86.25
2018-02-27T07:48:47.555Z,86.43
2018-02-27T07:51:15.565Z,87.32
2018-02-27T07:53:43.766Z,87.07
2018-02-27T07:56:11.721Z,87.15
2018-02-27T07:58:39.674Z,88.81
2018-02-27T08:01:07.604Z,88.88
2018-02-27T08:03:35.559Z,88.92
2018-02-27T08:06:03.498Z,90.82
2018-02-27T08:08:31.459Z,90.35
2018-02-27T08:10:59.417Z,90.34
2018-02-27T08:13:27.561Z,89.01
2018-02-27T08:15:55.526Z,88.64
2018-02-27T08:18:23.451Z,88.26
2018-02-27T08:20:51.586Z,87.84
2018-02-27T08:23:19.537Z,87.19
2018-02-27T08:25:47.528Z,86.25
2018-02-27T08:28:15.450Z,86.22
2018-02-27T08:30:43.503Z,85.71
2018-02-27T08:33:11.466Z,85.62
2018-02-27T08:35:39.378Z,87.51
2018-02-27T08:38:07.333Z,88.03
2018-02-27T08:40:35.264Z,87.89
2018-02-27T08:43:03.234Z,86.36
2018-02-27T08:45:31.178Z,87.35
2018-02-27T08:47:59.159Z,87.27
2018-02-27T08:50:27.100Z,87.55
2018-02-27T08:52:55.066Z,87.59
2018-02-27T08:55:23.129Z,87.90
2018-02-27T08:57:51.382Z,87.61
2018-02-27T09:00:19.362Z,88.08
2018-02-27T09:02:47.338Z,88.14
2018-02-27T09:05:15.307Z,87.78
2018-02-27T09:07:43.277Z,86.58
2018-02-27T09:10:11.194Z,85.78
2018-02-27T09:12:39.186Z,83.12
2018-02-27T09:15:07.147Z,82.69
2018-02-27T09:17:35.171Z,83.31
2018-02-27T09:20:03.154Z,84.14
2018-02-27T09:22:31.090Z,82.70
2018-02-27T09:24:59.061Z,82.69
2018-02-27T09:27:27.036Z,83.87
2018-02-27T09:29:55.020Z,84.63
2018-02-27T09:32:22.969Z,83.88
2018-02-27T09:34:51.007Z,86.06
2018-02-27T09:37:18.965Z,85.01
2018-02-27T09:39:47.027Z,86.16
2018-02-27T09:42:15.084Z,85.24
2018-02-27T09:44:43.027Z,85.71
2018-02-27T09:47:11.034Z,86.71
2018-02-27T09:49:39.041Z,86.05
2018-02-27T09:52:06.999Z,85.29
2018-02-27T09:54:34.938Z,85.61
2018-02-27T09:57:02.883Z,84.46
2018-02-27T09:59:30.833Z,83.67
2018-02-27T10:01:58.798Z,83.80
2018-02-27T10:04:26.794Z,82.84
2018-02-27T10:06:54.743Z,81.86
2018-02-27T10:09:22.993Z,78.24
2018-02-27T10:11:50.912Z,76.16
2018-02-27T10:14:18.858Z,73.66
2018-02-27T10:16:46.784Z,70.42
2018-02-27T10:19:14.735Z,70.35
2018-02-27T10:21:42.669Z,69.89
2018-02-27T10:24:10.708Z,67.69
2018-02-27T10:26:38.622Z,59.51
2018-02-27T10:29:06.549Z,57.87
2018-02-27T10:31:34.488Z,57.41
2018-02-27T10:34:02.426Z,52.85
2018-02-27T10:36:30.350Z,55.12
2018-02-27T10:38:58.287Z,55.28
2018-02-27T10:41:26.235Z,53.14
2018-02-27T10:43:54.162Z,54.81
2018-02-27T10:46:22.139Z,55.65
2018-02-27T10:48:50.081Z,55.97
2018-02-27T10:51:17.988Z,55.61
2018-02-27T10:53:45.910Z,54.18
2018-02-27T10:56:13.819Z,55.57
2018-02-27T10:58:41.749Z,55.15
2018-02-27T11:01:15.362Z,53.91
2018-02-27T11:03:43.323Z,54.68
2018-02-27T11:06:11.238Z,53.42
2018-02-27T11:08:39.206Z,52.09
2018-02-27T11:11:07.144Z,51.33
2018-02-27T11:13:35.091Z,46.81
2018-02-27T11:16:03.038Z,48.44
2018-02-27T11:18:31.758Z,46.57
2018-02-27T11:20:59.708Z,45.25
2018-02-27T11:23:27.638Z,44.22
2018-02-27T11:25:55.608Z,43.30
2018-02-27T11:28:23.571Z,55.79
2018-02-27T11:30:51.546Z,46.50
2018-02-27T11:33:19.492Z,45.22
2018-02-27T11:35:47.421Z,49.14
2018-02-27T11:38:15.380Z,44.96
2018-02-27T11:40:43.366Z,44.00
2018-02-27T11:43:11.340Z,44.96
2018-02-27T11:45:39.251Z,47.81
2018-02-27T11:48:07.220Z,42.47
2018-02-27T11:50:35.150Z,42.00
2018-02-27T11:53:03.106Z,45.65
2018-02-27T11:55:31.066Z,42.50
2018-02-27T11:57:59.001Z,40.71
2018-02-27T12:00:26.938Z,40.59
2018-02-27T12:02:54.923Z,39.35
2018-02-27T12:05:22.890Z,37.65
2018-02-27T12:07:50.884Z,37.63
2018-02-27T12:10:18.881Z,38.46
2018-02-27T12:12:46.802Z,40.40
2018-02-27T12:15:14.738Z,39.37
2018-02-27T12:17:42.662Z,38.90
2018-02-27T12:20:10.627Z,39.66
2018-02-27T12:22:38.638Z,40.74
2018-02-27T12:25:06.570Z,41.32
2018-02-27T12:27:34.590Z,39.81
2018-02-27T12:30:02.556Z,39.59
2018-02-27T12:32:30.498Z,40.03
2018-02-27T12:34:58.437Z,38.49
2018-02-27T12:37:26.470Z,38.51
2018-02-27T12:39:54.393Z,38.02
2018-02-27T12:42:22.354Z,40.20
2018-02-27T12:44:50.350Z,43.67
2018-02-27T12:47:18.290Z,45.83
2018-02-27T12:49:46.261Z,39.43
2018-02-27T12:52:14.217Z,39.41
2018-02-27T12:54:42.159Z,42.05
2018-02-27T12:57:10.098Z,39.93
2018-02-27T12:59:39.267Z,40.36
2018-02-27T13:02:07.281Z,42.70
2018-02-27T13:04:36.152Z,37.63
2018-02-27T13:07:04.094Z,43.00
2018-02-27T13:09:32.238Z,42.69
2018-02-27T13:12:00.163Z,43.46
2018-02-27T13:14:28.103Z,43.90
2018-02-27T13:16:56.051Z,44.96
2018-02-27T13:19:24.659Z,45.98
2018-02-27T13:21:53.829Z,47.02
2018-02-27T13:24:21.752Z,47.30
2018-02-27T13:26:49.698Z,47.55
2018-02-27T13:29:17.622Z,52.56
2018-02-27T13:31:45.592Z,49.91
2018-02-27T13:34:13.560Z,49.02
2018-02-27T13:36:41.520Z,49.53
2018-02-27T13:39:09.483Z,51.12
2018-02-27T13:41:38.008Z,51.17
2018-02-27T13:44:06.102Z,49.94
2018-02-27T13:46:34.184Z,51.20
2018-02-27T13:49:04.118Z,52.39
2018-02-27T13:51:30.050Z,51.59
2018-02-27T13:53:58.005Z,52.27
2018-02-27T13:56:26.012Z,51.16
2018-02-27T13:58:54.046Z,50.72
2018-02-27T14:01:21.961Z,51.77
2018-02-27T14:03:49.911Z,50.08
2018-02-27T14:06:17.854Z,51.58
2018-02-27T14:08:45.851Z,51.07
2018-02-27T14:11:13.808Z,54.11
2018-02-27T14:13:41.837Z,53.91
2018-02-27T14:16:09.779Z,52.82
2018-02-27T14:18:37.726Z,53.97
2018-02-27T14:21:05.717Z,55.76
2018-02-27T14:23:33.649Z,57.00
2018-02-27T14:26:01.661Z,57.32
2018-02-27T14:28:29.608Z,58.61
2018-02-27T14:30:58.212Z,58.61
2018-02-27T14:33:26.171Z,58.93
2018-02-27T14:35:54.109Z,57.48
2018-02-27T14:38:22.046Z,60.06
2018-02-27T14:40:50.024Z,58.69
2018-02-27T14:43:17.962Z,58.92
2018-02-27T14:45:45.901Z,59.80
2018-02-27T14:48:13.918Z,59.35
2018-02-27T14:50:41.845Z,59.81
2018-02-27T14:53:09.783Z,60.80
2018-02-27T14:55:37.720Z,61.56
2018-02-27T14:58:05.698Z,61.28
2018-02-27T15:00:33.658Z,62.27
2018-02-27T15:03:01.691Z,62.84
2018-02-27T15:05:30.220Z,63.29
2018-02-27T15:07:58.181Z,63.64
2018-02-27T15:10:26.151Z,63.29
2018-02-27T15:12:54.197Z,65.17
2018-02-27T15:15:22.247Z,64.32
2018-02-27T15:17:50.192Z,64.24
2018-02-27T15:20:18.152Z,65.37
2018-02-27T15:22:46.190Z,64.47
2018-02-27T15:25:14.137Z,64.41
2018-02-27T15:27:42.062Z,64.92
2018-02-27T15:30:09.986Z,65.47
2018-02-27T15:32:37.925Z,65.47
2018-02-27T15:35:05.871Z,65.53
2018-02-27T15:37:33.817Z,64.64
2018-02-27T15:40:01.871Z,65.53
2018-02-27T15:42:29.810Z,65.21
2018-02-27T15:44:57.754Z,64.95
2018-02-27T15:47:25.733Z,64.59
2018-02-27T15:49:53.699Z,63.31
2018-02-27T15:52:21.655Z,62.68
2018-02-27T15:54:49.645Z,63.29
2018-02-27T15:57:17.657Z,63.51
2018-02-27T15:59:45.590Z,63.63
2018-02-27T16:02:13.552Z,63.25
2018-02-27T16:04:41.504Z,65.88
2018-02-27T16:07:09.471Z,62.86
2018-02-27T16:09:37.398Z,63.27
2018-02-27T16:12:05.312Z,64.47
2018-02-27T16:14:33.289Z,62.02
2018-02-27T16:17:01.251Z,60.57
2018-02-27T16:19:29.187Z,62.37
2018-02-27T16:21:57.156Z,62.73
2018-02-27T16:24:25.109Z,62.12
2018-02-27T16:26:53.312Z,63.76
2018-02-27T16:29:21.243Z,63.32
2018-02-27T16:31:49.209Z,62.66
2018-02-27T16:34:17.250Z,63.66
2018-02-27T16:36:45.203Z,64.31
2018-02-27T16:39:13.186Z,63.84
2018-02-27T16:41:41.208Z,63.65
2018-02-27T16:44:09.224Z,64.69
2018-02-27T16:46:37.149Z,64.75
2018-02-27T16:49:05.218Z,64.53
2018-02-27T16:51:33.193Z,65.05
2018-02-27T16:54:01.173Z,66.40
2018-02-27T16:56:29.189Z,65.11
2018-02-27T16:58:57.236Z,64.82
2018-02-27T17:01:25.216Z,65.67
2018-02-27T17:03:53.184Z,67.24
2018-02-27T17:06:21.160Z,65.56
2018-02-27T17:08:49.082Z,66.46
2018-02-27T17:11:17.050Z,66.95
2018-02-27T17:13:45.054Z,66.74
2018-02-27T17:16:13.225Z,66.01
2018-02-27T17:18:41.157Z,66.53
2018-02-27T17:21:09.100Z,66.75
2018-02-27T17:23:37.043Z,66.65
2018-02-27T17:26:05.015Z,67.07
2018-02-27T17:28:32.981Z,65.65
2018-02-27T17:31:01.671Z,66.10
2018-02-27T17:33:29.635Z,66.86
2018-02-27T17:35:57.641Z,66.89
2018-02-27T17:38:25.639Z,68.13
2018-02-27T17:40:53.677Z,68.74
2018-02-27T17:43:21.739Z,67.33
2018-02-27T17:45:49.658Z,66.05
2018-02-27T17:48:17.612Z,67.46
2018-02-27T17:50:45.592Z,67.52
2018-02-27T17:53:13.547Z,69.76
2018-02-27T17:55:41.514Z,68.45
2018-02-27T17:58:09.449Z,67.90
2018-02-27T18:00:37.404Z,67.23
2018-02-27T18:03:05.345Z,67.76
2018-02-27T18:05:33.289Z,68.95
2018-02-27T18:08:01.205Z,68.23
2018-02-27T18:10:29.152Z,67.33
2018-02-27T18:12:57.117Z,66.80
2018-02-27T18:15:25.116Z,67.41
2018-02-27T18:17:53.137Z,67.97
2018-02-27T18:20:21.219Z,67.26
2018-02-27T18:22:49.236Z,66.85
2018-02-27T18:25:17.180Z,67.87
2018-02-27T18:27:45.141Z,67.19
2018-02-27T18:30:13.165Z,67.20
2018-02-27T18:32:42.738Z,67.65
2018-02-27T18:35:10.664Z,68.02
2018-02-27T18:37:39.155Z,67.66
2018-02-27T18:40:07.546Z,67.01
2018-02-27T18:42:35.589Z,67.10
2018-02-27T18:45:05.469Z,65.82
2018-02-27T18:47:33.441Z,66.90
2018-02-27T18:50:01.367Z,66.25
2018-02-27T18:52:29.287Z,65.53
2018-02-27T18:54:57.233Z,65.62
2018-02-27T18:57:25.171Z,64.25
2018-02-27T18:59:53.134Z,66.07
2018-02-27T19:02:21.032Z,64.10
2018-02-27T19:04:49.012Z,64.50
2018-02-27T19:07:16.933Z,65.40
2018-02-27T19:09:44.843Z,62.52
2018-02-27T19:12:12.775Z,63.50
2018-02-27T19:14:40.699Z,63.44
2018-02-27T19:17:08.625Z,62.71
2018-02-27T19:19:37.369Z,63.02
2018-02-27T19:22:05.274Z,65.34
2018-02-27T19:24:33.218Z,63.91
2018-02-27T19:27:01.173Z,62.03
2018-02-27T19:29:29.109Z,62.99
2018-02-27T19:31:57.054Z,63.01
2018-02-27T19:34:25.021Z,61.60
2018-02-27T19:36:52.956Z,61.05
2018-02-27T19:39:20.894Z,59.52
2018-02-27T19:41:49.940Z,59.09
2018-02-27T19:44:17.906Z,59.65
2018-02-27T19:46:46.436Z,59.48
2018-02-27T19:49:14.403Z,61.70
2018-02-27T19:51:42.340Z,58.18
2018-02-27T19:54:10.492Z,58.67
2018-02-27T19:56:38.526Z,58.94
2018-02-27T19:59:06.478Z,61.59
2018-02-27T20:01:34.422Z,58.48
2018-02-27T20:04:02.445Z,57.58
2018-02-27T20:06:30.868Z,56.89
2018-02-27T20:08:58.791Z,58.27
2018-02-27T20:11:26.733Z,57.47
2018-02-27T20:13:54.747Z,56.20
2018-02-27T20:16:22.682Z,57.03
2018-02-27T20:18:50.961Z,56.01
2018-02-27T20:21:18.895Z,56.66
2018-02-27T20:23:52.550Z,56.38
2018-02-27T20:26:20.498Z,56.48
2018-02-27T20:28:55.124Z,59.36
2018-02-27T20:31:23.076Z,58.90
2018-02-27T20:33:51.123Z,56.42
2018-02-27T20:36:19.035Z,57.10
2018-02-27T20:38:54.247Z,57.53
2018-02-27T20:41:22.244Z,54.46
2018-02-27T20:43:50.721Z,52.87
2018-02-27T20:46:18.664Z,52.99
2018-02-27T20:48:46.715Z,54.76
2018-02-27T20:51:15.037Z,53.17
2018-02-27T20:53:43.008Z,54.72
2018-02-27T20:56:10.973Z,52.85
2018-02-27T20:58:38.908Z,54.44
2018-02-27T21:01:07.033Z,52.94
2018-02-27T21:03:35.015Z,53.23
2018-02-27T21:06:03.032Z,53.01
2018-02-27T21:08:30.986Z,53.61
2018-02-27T21:10:58.958Z,53.49
2018-02-27T21:13:26.940Z,52.71
2018-02-27T21:15:54.996Z,52.07
2018-02-27T21:18:22.930Z,52.84
2018-02-27T21:20:50.872Z,52.98
2018-02-27T21:23:18.949Z,52.57
2018-02-27T21:25:46.905Z,51.99
2018-02-27T21:28:14.883Z,52.97
2018-02-27T21:30:42.811Z,52.62
2018-02-27T21:33:10.757Z,53.75
2018-02-27T21:35:38.801Z,53.04
2018-02-27T21:38:06.766Z,53.10
2018-02-27T21:40:34.745Z,53.66
2018-02-27T21:43:02.679Z,53.77
2018-02-27T21:45:30.626Z,52.78
2018-02-27T21:47:59.164Z,54.00
2018-02-27T21:50:27.093Z,52.84
2018-02-27T21:52:55.046Z,51.47
2018-02-27T21:55:23.002Z,52.82
2018-02-27T21:57:50.929Z,53.14
2018-02-27T22:00:18.892Z,52.36
2018-02-27T22:02:46.891Z,55.42
2018-02-27T22:05:14.898Z,53.63
2018-02-27T22:07:42.909Z,52.75
2018-02-27T22:10:10.839Z,52.94
2018-02-27T22:12:39.383Z,54.17
2018-02-27T22:15:07.290Z,53.23
2018-02-27T22:17:35.252Z,52.72
2018-02-27T22:20:03.174Z,52.62
2018-02-27T22:22:31.093Z,54.27
2018-02-27T22:24:59.054Z,54.17
2018-02-27T22:27:27.064Z,53.79
2018-02-27T22:29:55.002Z,54.04
2018-02-27T22:32:22.972Z,53.94
2018-02-27T22:34:50.919Z,54.79
2018-02-27T22:37:18.975Z,54.81
2018-02-27T22:39:47.020Z,53.72
2018-02-27T22:42:15.002Z,54.79
2018-02-27T22:44:42.982Z,54.72
2018-02-27T22:47:10.903Z,54.52
2018-02-27T22:49:38.850Z,53.03
2018-02-27T22:52:06.780Z,53.54
2018-02-27T22:54:34.723Z,53.75
2018-02-27T22:57:02.667Z,53.33
2018-02-27T22:59:30.637Z,52.42
2018-02-27T23:01:58.717Z,53.52
2018-02-27T23:04:26.660Z,53.75
2018-02-27T23:06:54.559Z,54.61
2018-02-27T23:09:22.510Z,53.57
2018-02-27T23:11:50.445Z,54.46
2018-02-27T23:14:18.349Z,52.18
2018-02-27T23:16:46.277Z,53.25
2018-02-27T23:19:14.227Z,53.69
2018-02-27T23:21:42.156Z,53.37
2018-02-27T23:24:11.131Z,54.03
2018-02-27T23:26:40.401Z,54.38
2018-02-27T23:29:08.852Z,53.68
2018-02-27T23:31:37.701Z,54.30
2018-02-27T23:34:13.622Z,54.39
2018-02-27T23:36:41.556Z,53.59
2018-02-27T23:39:09.510Z,53.63
2018-02-27T23:41:37.427Z,54.13
2018-02-27T23:44:05.363Z,53.56
2018-02-27T23:46:33.342Z,54.46
2018-02-27T23:49:01.334Z,54.92
2018-02-27T23:51:29.287Z,54.92
2018-02-27T23:53:57.257Z,54.07
2018-02-27T23:56:25.181Z,54.51
2018-02-27T23:58:53.138Z,54.50
